Time;durP1;ratioP1;P1;durP2;ratioP2;P2;SDS_P1;SDS_P2;PMS_P1;PMS_P2;Temp;Humidity;BMP_temperature;BMP_pressure;BME280_temperature;BME280_humidity;BME280_pressure;Samples;Min_cycle;Max_cycle;Signal;HPM_P1;HPM_P2
2021/06/05 00:01:19;;;;;;;7.90;4.30;;;18.20;56.80;;;;;;4945736;28;20038;-86
2021/06/05 00:03:48;;;;;;;11.63;5.22;;;18.10;56.90;;;;;;4931000;28;20045;-86
2021/06/05 00:06:17;;;;;;;8.25;5.03;;;18.10;57.00;;;;;;4945517;28;20042;-86
2021/06/05 00:08:45;;;;;;;7.85;4.93;;;18.10;57.00;;;;;;4962632;28;20125;-85
2021/06/05 00:11:12;;;;;;;7.93;5.15;;;18.10;56.90;;;;;;4962261;28;20100;-85
2021/06/05 00:13:43;;;;;;;9.38;4.68;;;18.10;57.00;;;;;;4962191;28;20034;-84
2021/06/05 00:16:15;;;;;;;8.65;4.90;;;18.10;56.90;;;;;;4962557;28;20046;-84
2021/06/05 00:18:46;;;;;;;9.48;4.47;;;18.10;56.90;;;;;;4932839;28;20080;-83
2021/06/05 00:21:13;;;;;;;10.32;5.55;;;18.00;56.80;;;;;;4930112;28;20066;-85
2021/06/05 00:23:40;;;;;;;9.00;5.03;;;18.00;56.90;;;;;;4945404;28;20049;-84
2021/06/05 00:26:07;;;;;;;11.52;5.95;;;18.00;56.90;;;;;;4929630;28;20046;-84
2021/06/05 00:28:34;;;;;;;11.73;6.00;;;18.10;56.90;;;;;;4929145;28;20105;-85
2021/06/05 00:31:01;;;;;;;;;;;18.10;56.80;;;;;;4930015;28;20045;-86
2021/06/05 00:33:28;;;;;;;14.73;5.82;;;18.20;56.70;;;;;;4945564;28;19991;-85
2021/06/05 00:35:57;;;;;;;9.02;5.68;;;18.20;56.30;;;;;;4930309;28;20050;-86
2021/06/05 00:38:24;;;;;;;8.77;6.28;;;18.30;56.30;;;;;;4934486;28;20045;-84
2021/06/05 00:40:57;;;;;;;11.75;5.90;;;18.30;56.20;;;;;;4939547;28;20042;-85
2021/06/05 00:43:29;;;;;;;12.73;5.18;;;18.30;56.10;;;;;;4951045;28;20053;-85
2021/06/05 00:45:56;;;;;;;9.60;5.30;;;18.30;56.30;;;;;;4932128;28;20050;-85
2021/06/05 00:48:23;;;;;;;9.82;5.40;;;18.40;56.10;;;;;;4946775;28;20035;-85
2021/06/05 00:50:50;;;;;;;13.73;4.50;;;18.40;56.00;;;;;;4931083;28;20582;-84
2021/06/05 00:53:19;;;;;;;11.35;4.57;;;18.40;56.00;;;;;;4963107;28;20054;-86
2021/06/05 00:55:47;;;;;;;9.82;4.53;;;18.50;55.80;;;;;;4961283;28;20056;-85
2021/06/05 00:58:14;;;;;;;10.63;4.55;;;18.50;55.80;;;;;;4962216;28;20034;-84
2021/06/05 01:00:50;;;;;;;8.88;4.50;;;18.50;55.70;;;;;;4964100;28;20118;-85
2021/06/05 01:03:17;;;;;;;10.38;4.60;;;18.50;55.60;;;;;;4963305;28;20045;-85
2021/06/05 01:05:45;;;;;;;8.00;4.25;;;18.50;55.60;;;;;;4932432;28;20045;-85
2021/06/05 01:08:34;;;;;;;12.77;4.50;;;18.50;55.50;;;;;;4932926;28;20104;-85
2021/06/05 01:11:39;;;;;;;15.35;4.47;;;18.50;55.40;;;;;;4947848;28;20046;-84
2021/06/05 01:14:30;;;;;;;9.65;4.60;;;18.40;55.50;;;;;;4945325;28;20670;-85
2021/06/05 01:17:07;;;;;;;8.18;4.55;;;18.50;55.50;;;;;;4946367;28;20557;-85
2021/06/05 01:19:58;;;;;;;8.60;4.68;;;18.40;55.40;;;;;;4945082;28;20436;-86
2021/06/05 01:22:51;;;;;;;9.75;4.35;;;18.50;55.50;;;;;;4931664;28;20542;-86
2021/06/05 01:25:28;;;;;;;11.80;4.50;;;18.40;55.60;;;;;;4947949;28;20049;-85
2021/06/05 01:28:34;;;;;;;8.68;4.35;;;18.50;55.60;;;;;;4931988;28;20042;-85
2021/06/05 01:31:06;;;;;;;13.50;4.68;;;18.40;55.60;;;;;;4935591;28;20045;-85
2021/06/05 01:33:34;;;;;;;8.25;4.53;;;18.40;55.70;;;;;;4916727;28;20049;-84
2021/06/05 01:36:01;;;;;;;6.88;4.20;;;18.30;55.80;;;;;;4932650;28;20108;-85
2021/06/05 01:38:30;;;;;;;7.55;4.57;;;18.40;55.80;;;;;;4916904;28;20525;-84
2021/06/05 01:40:56;;;;;;;9.05;4.40;;;18.40;55.80;;;;;;4964411;28;20124;-85
2021/06/05 01:43:25;;;;;;;6.78;4.07;;;18.40;55.70;;;;;;4947798;28;20041;-83
2021/06/05 01:45:52;;;;;;;10.07;4.70;;;18.50;55.70;;;;;;4964658;28;20432;-85
2021/06/05 01:48:18;;;;;;;;;;;18.60;55.60;;;;;;4963086;28;20560;-84
2021/06/05 01:50:45;;;;;;;;;;;18.60;55.60;;;;;;4964507;28;20003;-85
2021/06/05 01:53:25;;;;;;;;;;;18.70;55.50;;;;;;4964681;28;20001;-85
2021/06/05 01:56:36;;;;;;;7.15;4.57;;;18.70;55.30;;;;;;4947369;28;19934;-85
2021/06/05 01:59:04;;;;;;;9.68;4.53;;;18.80;55.00;;;;;;4936348;28;20038;-85
2021/06/05 02:01:30;;;;;;;8.70;4.32;;;18.80;55.10;;;;;;4947287;28;20045;-85
2021/06/05 02:03:56;;;;;;;;;;;18.80;55.20;;;;;;4931650;28;20081;-84
2021/06/05 02:06:24;;;;;;;8.10;4.38;;;18.80;55.30;;;;;;4931554;28;19945;-85
2021/06/05 02:08:50;;;;;;;7.07;4.63;;;18.90;55.00;;;;;;4930736;28;20042;-86
2021/06/05 02:11:18;;;;;;;5.82;4.70;;;18.90;54.70;;;;;;4930654;28;20061;-85
2021/06/05 02:13:58;;;;;;;8.23;4.95;;;18.90;54.70;;;;;;4947165;28;20109;-84
2021/06/05 02:16:46;;;;;;;7.68;4.95;;;18.90;54.70;;;;;;4931480;28;20045;-85
2021/06/05 02:19:36;;;;;;;8.23;6.05;;;18.90;54.80;;;;;;4931339;28;20045;-84
2021/06/05 02:22:06;;;;;;;7.53;4.28;;;19.00;54.80;;;;;;4950002;28;20562;-84
2021/06/05 02:24:43;;;;;;;7.53;4.05;;;19.00;54.50;;;;;;4932469;28;20042;-85
2021/06/05 02:27:14;;;;;;;6.20;3.72;;;19.00;54.50;;;;;;4945696;28;20549;-85
2021/06/05 02:29:41;;;;;;;7.18;4.10;;;19.00;54.50;;;;;;4949116;28;20049;-84
2021/06/05 02:32:13;;;;;;;7.22;3.90;;;19.10;54.50;;;;;;4951490;28;20046;-85
2021/06/05 02:34:39;;;;;;;10.85;4.43;;;19.10;53.90;;;;;;4950317;28;20056;-86
2021/06/05 02:37:09;;;;;;;4.72;4.13;;;19.00;54.00;;;;;;4966498;28;20042;-85
2021/06/05 02:39:35;;;;;;;6.95;3.60;;;19.00;54.10;;;;;;4932852;28;20042;-85
2021/06/05 02:42:03;;;;;;;5.32;4.28;;;19.00;54.10;;;;;;4946402;28;20033;-86
2021/06/05 02:44:30;;;;;;;5.22;3.40;;;19.10;54.20;;;;;;4946439;28;20042;-86
2021/06/05 02:46:58;;;;;;;4.65;3.20;;;19.10;53.80;;;;;;4940401;28;20042;-85
2021/06/05 02:49:31;;;;;;;6.93;3.38;;;19.20;53.60;;;;;;4959287;28;20042;-87
2021/06/05 02:52:03;;;;;;;3.00;2.78;;;19.20;53.60;;;;;;4944306;28;20062;-86
2021/06/05 02:54:29;;;;;;;5.18;3.25;;;19.40;53.70;;;;;;4943152;28;20034;-84
2021/06/05 02:56:58;;;;;;;6.53;3.30;;;19.60;52.40;;;;;;4959423;28;20046;-85
2021/06/05 02:59:25;;;;;;;8.05;3.17;;;19.60;51.80;;;;;;4926333;28;20131;-85
2021/06/05 03:01:52;;;;;;;4.28;3.30;;;19.60;51.60;;;;;;4926867;28;20474;-86
2021/06/05 03:04:19;;;;;;;5.28;3.40;;;19.70;52.70;;;;;;4927339;28;20046;-86
2021/06/05 03:06:46;;;;;;;4.88;3.60;;;19.80;51.60;;;;;;4926550;28;20535;-87
2021/06/05 03:09:15;;;;;;;;;;;19.90;51.20;;;;;;4942817;28;20092;-84
2021/06/05 03:11:43;;;;;;;4.43;2.95;;;20.00;50.90;;;;;;4931575;28;19925;-85
2021/06/05 03:14:10;;;;;;;5.65;3.33;;;20.10;50.60;;;;;;4943387;28;20639;-86
2021/06/05 03:16:37;;;;;;;5.88;3.50;;;20.10;50.40;;;;;;4943988;28;20091;-86
2021/06/05 03:19:04;;;;;;;9.18;3.80;;;20.10;50.40;;;;;;4975793;28;20034;-86
2021/06/05 03:21:31;;;;;;;6.13;3.55;;;20.10;50.30;;;;;;4946219;28;20045;-85
2021/06/05 03:23:57;;;;;;;;;;;20.00;50.10;;;;;;4930781;28;20034;-84
2021/06/05 03:26:23;;;;;;;;;;;19.90;50.10;;;;;;4963003;28;19953;-85
2021/06/05 03:28:50;;;;;;;;;;;19.90;50.40;;;;;;4963416;28;20301;-86
2021/06/05 03:31:21;;;;;;;6.70;3.20;;;19.90;50.30;;;;;;4974098;28;20332;-86
2021/06/05 03:33:50;;;;;;;6.07;3.47;;;19.90;50.30;;;;;;4945213;28;20057;-87
2021/06/05 03:36:17;;;;;;;9.57;3.10;;;19.90;50.40;;;;;;4929847;28;20072;-85
2021/06/05 03:38:44;;;;;;;;;;;20.00;50.40;;;;;;4977858;28;20042;-84
2021/06/05 03:41:12;;;;;;;4.53;3.17;;;20.00;50.30;;;;;;4962089;28;19930;-85
2021/06/05 03:43:39;;;;;;;6.75;3.30;;;20.00;50.10;;;;;;4930280;28;20056;-87
2021/06/05 03:46:05;;;;;;;4.93;3.20;;;20.00;50.00;;;;;;4929752;28;20045;-87
2021/06/05 03:48:32;;;;;;;5.10;3.15;;;20.00;50.00;;;;;;4951825;28;20057;-86
2021/06/05 03:50:58;;;;;;;;;;;20.10;49.90;;;;;;4953913;28;20646;-87
2021/06/05 03:53:25;;;;;;;;;;;20.10;49.80;;;;;;4962959;28;19936;-85
2021/06/05 03:55:52;;;;;;;6.53;3.58;;;20.10;49.90;;;;;;4945899;28;19944;-88
2021/06/05 03:58:26;;;;;;;4.88;3.10;;;20.20;49.50;;;;;;4962921;28;20533;-87
2021/06/05 04:00:52;;;;;;;6.28;3.35;;;20.20;49.20;;;;;;4960553;28;20049;-86
2021/06/05 04:03:18;;;;;;;;;;;20.10;49.60;;;;;;4964898;28;20100;-85
2021/06/05 04:05:45;;;;;;;;;;;20.10;49.60;;;;;;4963036;28;19930;-86
2021/06/05 04:08:12;;;;;;;9.75;3.30;;;20.10;49.60;;;;;;4948278;28;20052;-88
2021/06/05 04:10:39;;;;;;;6.07;3.45;;;20.20;49.70;;;;;;4963299;28;20042;-89
2021/06/05 04:13:05;;;;;;;;;;;20.30;49.70;;;;;;4936698;28;20038;-89
2021/06/05 04:15:32;;;;;;;5.43;3.45;;;20.60;49.80;;;;;;4931363;28;20447;-89
2021/06/05 04:18:14;;;;;;;4.65;3.22;;;20.90;49.30;;;;;;4932479;28;20041;-91
2021/06/05 04:20:41;;;;;;;5.20;3.28;;;21.10;47.60;;;;;;4948878;28;20038;-93
2021/06/05 04:23:08;;;;;;;10.38;3.92;;;21.30;47.20;;;;;;4916220;28;20069;-94
2021/06/05 04:25:36;;;;;;;7.78;4.18;;;21.40;47.10;;;;;;4917381;28;20513;-90
2021/06/05 04:28:04;;;;;;;5.00;3.20;;;21.50;47.20;;;;;;4947543;28;20038;-90
2021/06/05 04:30:30;;;;;;;3.97;3.55;;;21.70;46.20;;;;;;4977223;28;20413;-90
2021/06/05 04:32:57;;;;;;;6.15;3.17;;;21.70;45.60;;;;;;4947995;28;20057;-88
2021/06/05 04:35:28;;;;;;;6.80;3.40;;;21.60;45.10;;;;;;4948682;28;20053;-88
2021/06/05 04:37:54;;;;;;;3.75;2.70;;;21.50;45.90;;;;;;4959003;28;20065;-88
2021/06/05 04:40:21;;;;;;;;;;;21.50;45.30;;;;;;4944758;28;20034;-85
2021/06/05 04:42:49;;;;;;;4.35;3.42;;;21.50;45.80;;;;;;4926610;28;19930;-86
2021/06/05 04:45:16;;;;;;;9.05;3.80;;;21.50;47.40;;;;;;4941288;29;20472;-86
2021/06/05 04:47:42;;;;;;;6.95;3.72;;;21.70;46.00;;;;;;4909794;29;20035;-87
2021/06/05 04:50:10;;;;;;;6.88;3.55;;;21.90;46.00;;;;;;4958674;28;20046;-86
2021/06/05 04:52:37;;;;;;;9.00;3.28;;;22.20;45.40;;;;;;4944086;28;20042;-89
2021/06/05 04:55:05;;;;;;;6.78;4.07;;;22.50;44.50;;;;;;4943395;28;20055;-86
2021/06/05 04:57:32;;;;;;;3.78;3.47;;;22.90;44.30;;;;;;4945119;28;20102;-88
2021/06/05 04:59:58;;;;;;;10.88;3.47;;;23.70;42.60;;;;;;4947754;28;20038;-88
2021/06/05 05:02:25;;;;;;;6.57;3.40;;;24.80;41.00;;;;;;4947435;28;20461;-87
2021/06/05 05:04:51;;;;;;;5.15;3.00;;;26.20;39.40;;;;;;4946274;28;20034;-87
2021/06/05 05:07:18;;;;;;;;;;;27.80;36.10;;;;;;4969463;28;20053;-88
2021/06/05 05:09:45;;;;;;;7.07;3.50;;;28.90;34.10;;;;;;4948357;28;20405;-87
2021/06/05 05:12:12;;;;;;;4.20;3.15;;;29.90;30.70;;;;;;4965132;28;20112;-88
2021/06/05 05:14:41;;;;;;;4.78;2.88;;;30.50;27.60;;;;;;4934624;28;20038;-86
2021/06/05 05:17:20;;;;;;;;;;;30.50;27.00;;;;;;4963663;28;20425;-87
2021/06/05 05:19:47;;;;;;;6.05;3.38;;;30.60;27.00;;;;;;4949381;28;20317;-87
2021/06/05 05:22:13;;;;;;;6.28;3.35;;;30.70;27.20;;;;;;4948222;28;20042;-85
2021/06/05 05:24:40;;;;;;;6.78;3.17;;;30.40;27.90;;;;;;4947665;28;20141;-88
2021/06/05 05:27:07;;;;;;;4.30;2.97;;;30.10;27.80;;;;;;4931563;28;20042;-85
2021/06/05 05:29:33;;;;;;;10.02;3.70;;;30.00;28.00;;;;;;4947473;28;20042;-86
2021/06/05 05:32:00;;;;;;;7.68;3.40;;;29.60;28.60;;;;;;4963268;28;20097;-87
2021/06/05 05:34:26;;;;;;;10.60;3.50;;;29.40;28.80;;;;;;4947469;28;20124;-86
2021/06/05 05:36:55;;;;;;;10.27;3.40;;;29.10;29.00;;;;;;4931518;28;20077;-87
2021/06/05 05:39:22;;;;;;;5.03;3.65;;;28.90;28.90;;;;;;4948293;28;20065;-86
2021/06/05 05:41:49;;;;;;;8.48;3.30;;;28.80;29.50;;;;;;4931405;28;20038;-86
2021/06/05 05:44:17;;;;;;;5.35;3.38;;;29.70;29.30;;;;;;4947556;28;20177;-86
2021/06/05 05:46:44;;;;;;;5.40;3.30;;;31.00;27.10;;;;;;4948174;28;20432;-87
2021/06/05 05:49:10;;;;;;;6.85;3.47;;;32.00;26.50;;;;;;4950255;28;20520;-87
2021/06/05 05:51:37;;;;;;;9.75;4.00;;;32.90;25.30;;;;;;4931961;28;20471;-86
2021/06/05 05:54:04;;;;;;;4.95;3.15;;;33.80;24.60;;;;;;4963327;28;20104;-86
2021/06/05 05:56:33;;;;;;;4.38;3.42;;;35.10;23.20;;;;;;4931830;28;20120;-87
2021/06/05 05:59:00;;;;;;;4.93;2.95;;;36.10;21.90;;;;;;4938579;28;20058;-86
2021/06/05 06:01:30;;;;;;;7.78;3.28;;;36.60;20.60;;;;;;4951734;28;20117;-87
2021/06/05 06:03:57;;;;;;;5.97;3.15;;;37.20;20.20;;;;;;4948457;28;20045;-88
2021/06/05 06:06:25;;;;;;;6.43;3.70;;;37.90;19.80;;;;;;4933007;28;20057;-89
2021/06/05 06:08:53;;;;;;;5.50;4.43;;;38.70;19.30;;;;;;4931790;28;20038;-87
2021/06/05 06:11:19;;;;;;;5.82;3.03;;;39.10;17.40;;;;;;4948228;28;20038;-86
2021/06/05 06:13:46;;;;;;;3.40;3.00;;;38.90;17.10;;;;;;4948112;28;20038;-88
2021/06/05 06:16:14;;;;;;;4.85;3.20;;;39.10;17.20;;;;;;4931662;28;20045;-87
2021/06/05 06:18:41;;;;;;;6.78;3.15;;;39.90;17.20;;;;;;4932715;28;20160;-86
2021/06/05 06:21:10;;;;;;;5.15;3.10;;;40.30;16.20;;;;;;4932833;28;20038;-87
2021/06/05 06:23:39;;;;;;;6.03;2.92;;;39.80;16.20;;;;;;4941487;28;20038;-87
2021/06/05 06:26:11;;;;;;;7.18;3.25;;;39.30;17.00;;;;;;4942337;28;20042;-86
2021/06/05 06:28:39;;;;;;;8.45;3.20;;;39.30;17.30;;;;;;4938460;28;20030;-86
2021/06/05 06:31:05;;;;;;;6.13;3.20;;;39.80;16.80;;;;;;4952180;28;20042;-87
2021/06/05 06:33:32;;;;;;;4.80;3.40;;;40.50;16.60;;;;;;4947089;28;20053;-87
2021/06/05 06:35:59;;;;;;;3.60;2.90;;;41.10;15.30;;;;;;4928036;28;20042;-88
2021/06/05 06:38:30;;;;;;;3.40;3.10;;;41.30;15.10;;;;;;4928606;28;20062;-87
2021/06/05 06:40:58;;;;;;;8.90;3.55;;;41.60;14.50;;;;;;4929355;28;20591;-91
2021/06/05 06:43:27;;;;;;;4.82;3.15;;;42.00;14.60;;;;;;4943739;28;20429;-87
2021/06/05 06:45:53;;;;;;;3.92;3.30;;;41.80;14.10;;;;;;4926978;28;20097;-88
2021/06/05 06:48:21;;;;;;;7.55;3.22;;;40.60;14.20;;;;;;4911262;28;20088;-89
2021/06/05 06:50:48;;;;;;;6.40;3.30;;;38.70;15.30;;;;;;4911449;28;20061;-86
2021/06/05 06:53:16;;;;;;;4.18;3.17;;;37.00;17.60;;;;;;4927191;28;20058;-87
2021/06/05 06:55:43;;;;;;;4.80;3.40;;;35.60;19.10;;;;;;4927469;28;20537;-88
2021/06/05 06:58:10;;;;;;;5.07;3.00;;;35.00;20.20;;;;;;4942889;28;20065;-87
2021/06/05 07:00:43;;;;;;;7.78;3.78;;;35.30;20.20;;;;;;4927334;28;20168;-86
2021/06/05 07:03:09;;;;;;;6.35;3.35;;;35.70;20.00;;;;;;4942900;28;20038;-86
2021/06/05 07:05:37;;;;;;;4.97;3.30;;;36.90;19.00;;;;;;4911797;28;20108;-85
2021/06/05 07:08:13;;;;;;;5.88;3.30;;;38.00;17.70;;;;;;4944107;28;20041;-86
2021/06/05 07:10:40;;;;;;;9.75;3.70;;;39.00;16.50;;;;;;4913290;28;20050;-85
2021/06/05 07:13:07;;;;;;;8.15;4.05;;;39.50;16.30;;;;;;4912134;28;20573;-87
2021/06/05 07:15:34;;;;;;;7.65;3.40;;;40.20;15.80;;;;;;4960286;28;20106;-86
2021/06/05 07:18:01;;;;;;;4.40;3.20;;;40.50;15.10;;;;;;4943142;28;20076;-88
2021/06/05 07:20:29;;;;;;;6.00;3.42;;;40.80;14.20;;;;;;4911281;28;20042;-86
2021/06/05 07:22:55;;;;;;;7.38;3.72;;;40.70;14.70;;;;;;4926733;28;20109;-86
2021/06/05 07:25:21;;;;;;;7.07;3.28;;;41.50;14.50;;;;;;4926782;28;20541;-87
2021/06/05 07:27:49;;;;;;;8.20;3.97;;;42.70;13.50;;;;;;4943092;28;20537;-89
2021/06/05 07:30:16;;;;;;;9.00;3.85;;;43.80;12.50;;;;;;4927010;28;20505;-90
2021/06/05 07:32:43;;;;;;;4.15;3.20;;;44.30;11.80;;;;;;4911241;28;20089;-86
2021/06/05 07:35:10;;;;;;;6.43;3.60;;;44.80;11.50;;;;;;4943689;28;20114;-85
2021/06/05 07:37:36;;;;;;;9.52;3.60;;;45.10;11.20;;;;;;4926715;28;20038;-87
2021/06/05 07:40:07;;;;;;;7.38;4.07;;;45.40;11.20;;;;;;4930476;28;20107;-88
2021/06/05 07:42:37;;;;;;;4.38;3.40;;;46.00;10.60;;;;;;4930554;28;20038;-87
2021/06/05 07:45:06;;;;;;;6.80;3.58;;;46.70;10.20;;;;;;4946053;28;20419;-87
2021/06/05 07:47:33;;;;;;;4.40;3.38;;;46.90;9.70;;;;;;4930531;28;20038;-86
2021/06/05 07:52:26;;;;;;;8.00;3.63;;;47.30;9.30;;;;;;4962641;28;20064;-87
2021/06/05 07:54:53;;;;;;;5.25;3.15;;;47.70;9.40;;;;;;4962631;28;20034;-87
2021/06/05 07:57:23;;;;;;;6.05;3.53;;;48.10;8.30;;;;;;4961167;28;20480;-87
2021/06/05 07:59:50;;;;;;;9.07;4.82;;;47.90;8.40;;;;;;4962501;28;20056;-87
2021/06/05 08:02:16;;;;;;;7.43;4.00;;;48.10;8.40;;;;;;4962917;28;20033;-86
2021/06/05 08:04:43;;;;;;;4.53;3.40;;;48.20;8.30;;;;;;4930938;28;20034;-85
2021/06/05 08:07:10;;;;;;;10.10;3.67;;;48.30;8.30;;;;;;4945061;28;20038;-86
2021/06/05 08:09:36;;;;;;;12.02;3.70;;;48.30;7.90;;;;;;4944411;28;20393;-85
2021/06/05 08:12:03;;;;;;;4.88;3.60;;;48.00;8.20;;;;;;4944506;28;20041;-86
2021/06/05 08:14:29;;;;;;;6.45;3.47;;;47.80;8.40;;;;;;4945994;28;20119;-88
2021/06/05 08:16:56;;;;;;;6.82;3.50;;;47.70;8.40;;;;;;4961385;28;20108;-86
2021/06/05 08:19:22;;;;;;;4.57;3.90;;;47.70;8.20;;;;;;4944961;28;20041;-86
2021/06/05 08:21:49;;;;;;;8.57;4.05;;;47.60;8.50;;;;;;4929349;28;20125;-87
2021/06/05 08:24:17;;;;;;;8.20;3.67;;;47.80;8.40;;;;;;4929061;28;20425;-86
2021/06/05 08:26:44;;;;;;;8.32;4.60;;;48.00;8.10;;;;;;4945645;28;20038;-85
2021/06/05 08:29:11;;;;;;;4.53;3.95;;;48.00;8.00;;;;;;4944651;28;20428;-87
2021/06/05 08:31:37;;;;;;;6.78;3.72;;;47.90;8.10;;;;;;4947125;28;20078;-86
2021/06/05 08:34:04;;;;;;;7.25;4.30;;;47.60;8.20;;;;;;4965473;28;20082;-85
2021/06/05 08:36:30;;;;;;;6.47;4.60;;;47.30;8.60;;;;;;4964156;28;20064;-86
2021/06/05 08:38:56;;;;;;;9.25;4.07;;;47.10;8.30;;;;;;4932011;28;20038;-85
2021/06/05 08:41:27;;;;;;;6.93;4.50;;;46.70;8.60;;;;;;4964270;28;20104;-86
2021/06/05 08:48:30;;;;;;;7.63;4.10;;;46.70;9.20;;;;;;4965868;28;20065;-86
2021/06/05 08:51:16;;;;;;;9.00;4.25;;;47.40;8.90;;;;;;4980158;28;20034;-86
2021/06/05 08:53:43;;;;;;;8.40;4.50;;;47.70;8.20;;;;;;4950651;28;20062;-88
2021/06/05 08:57:09;;;;;;;4.65;4.25;;;47.60;8.00;;;;;;4947816;28;20596;-86
2021/06/05 09:00:22;;;;;;;5.50;3.92;;;47.20;8.10;;;;;;4943651;28;20061;-86
2021/06/05 09:02:53;;;;;;;5.65;4.03;;;45.60;9.00;;;;;;4927789;28;20057;-85
2021/06/05 09:05:24;;;;;;;9.40;4.22;;;44.50;10.00;;;;;;4927011;28;20047;-85
2021/06/05 09:08:28;;;;;;;6.07;4.05;;;43.00;11.10;;;;;;4911670;28;20058;-85
2021/06/05 09:10:56;;;;;;;6.82;4.10;;;41.70;12.20;;;;;;4943608;28;20045;-87
2021/06/05 09:13:23;;;;;;;5.65;3.97;;;40.20;13.50;;;;;;4944302;28;20057;-85
2021/06/05 09:16:21;;;;;;;5.88;4.07;;;39.40;14.60;;;;;;4898345;28;20097;-85
2021/06/05 09:19:09;;;;;;;8.82;4.40;;;38.10;15.40;;;;;;4917599;28;20074;-85
2021/06/05 09:22:14;;;;;;;4.90;4.47;;;36.90;16.90;;;;;;4918282;28;20050;-85
2021/06/05 09:24:48;;;;;;;10.88;6.18;;;36.30;17.50;;;;;;4914455;28;20058;-90
2021/06/05 09:27:17;;;;;;;6.32;4.20;;;35.40;18.50;;;;;;4935391;28;20057;-86
2021/06/05 09:30:08;;;;;;;5.78;4.38;;;34.80;19.20;;;;;;4927355;28;20042;-87
2021/06/05 09:32:55;;;;;;;4.85;4.38;;;33.80;19.90;;;;;;4951405;28;20046;-87
2021/06/05 09:35:29;;;;;;;10.18;4.40;;;33.10;21.10;;;;;;4954204;28;20512;-87
2021/06/05 09:38:11;;;;;;;4.68;4.20;;;32.40;21.90;;;;;;4936281;28;20039;-87
2021/06/05 09:40:38;;;;;;;6.57;5.25;;;31.70;22.60;;;;;;4933351;28;20050;-92
2021/06/05 09:43:11;;;;;;;5.57;4.78;;;31.40;23.40;;;;;;4948140;28;20045;-88
2021/06/05 09:45:43;;;;;;;4.75;4.20;;;31.10;24.00;;;;;;4948566;28;20042;-89
2021/06/05 09:48:31;;;;;;;8.98;4.57;;;30.80;24.30;;;;;;4949506;28;20528;-87
2021/06/05 09:51:00;;;;;;;7.10;4.45;;;30.60;24.60;;;;;;4960798;28;20043;-88
2021/06/05 09:56:23;;;;;;;4.93;4.22;;;30.90;25.30;;;;;;4351098;32;474652;-86
2021/06/05 09:59:02;;;;;;;4.22;3.83;;;31.80;24.30;;;;;;5056827;28;20100;-89
2021/06/05 10:01:30;;;;;;;6.75;3.60;;;32.10;23.10;;;;;;5077614;28;20403;-88
2021/06/05 10:04:18;;;;;;;4.57;3.70;;;31.90;23.20;;;;;;5026091;28;20534;-88
2021/06/05 10:06:56;;;;;;;5.78;4.18;;;31.20;23.80;;;;;;5043308;28;20032;-87
2021/06/05 10:09:25;;;;;;;6.93;4.40;;;30.50;25.00;;;;;;5027273;28;20151;-87
2021/06/05 10:12:04;;;;;;;4.25;3.80;;;30.20;26.00;;;;;;5060485;28;20436;-86
2021/06/05 10:14:47;;;;;;;5.72;4.55;;;30.00;26.20;;;;;;5043239;28;20065;-85
2021/06/05 10:17:40;;;;;;;6.53;4.05;;;29.90;26.60;;;;;;5029215;28;20097;-86
2021/06/05 10:20:41;;;;;;;5.53;4.10;;;29.70;26.90;;;;;;5043738;28;20046;-88
2021/06/05 10:23:08;;;;;;;6.07;4.00;;;29.60;27.10;;;;;;5039737;28;20073;-86
2021/06/05 10:25:35;;;;;;;6.97;4.10;;;29.40;27.20;;;;;;5027971;28;20032;-86
2021/06/05 10:28:35;;;;;;;8.85;4.38;;;29.30;27.40;;;;;;5075718;28;20031;-89
2021/06/05 10:31:12;;;;;;;6.28;4.30;;;29.30;28.20;;;;;;5057087;28;20530;-85
2021/06/05 10:33:44;;;;;;;5.20;4.05;;;29.20;27.90;;;;;;5031257;28;20038;-86
2021/06/05 10:36:29;;;;;;;4.47;4.07;;;29.10;27.90;;;;;;5029605;28;20040;-85
2021/06/05 10:39:08;;;;;;;5.05;3.60;;;28.90;27.60;;;;;;5012669;28;20088;-86
2021/06/05 10:41:55;;;;;;;6.40;3.92;;;28.70;28.20;;;;;;5012528;28;20438;-87
2021/06/05 10:44:23;;;;;;;7.82;4.18;;;28.60;28.80;;;;;;5009158;28;20043;-86
2021/06/05 10:47:08;;;;;;;6.72;4.20;;;28.40;29.20;;;;;;5026832;28;20032;-86
2021/06/05 10:50:03;;;;;;;;;;;28.40;29.30;;;;;;4992992;28;20036;-86
2021/06/05 10:52:53;;;;;;;4.40;3.90;;;28.40;29.30;;;;;;5029311;28;19928;-85
2021/06/05 10:55:29;;;;;;;6.80;4.00;;;28.50;28.90;;;;;;5006268;28;20181;-86
2021/06/05 10:58:07;;;;;;;4.10;3.65;;;28.50;28.90;;;;;;5022479;28;20044;-85
2021/06/05 11:00:51;;;;;;;7.13;4.07;;;28.50;28.90;;;;;;5023074;28;20063;-86
2021/06/05 11:03:23;;;;;;;6.90;3.97;;;28.50;29.80;;;;;;5022818;28;20036;-86
2021/06/05 11:06:40;;;;;;;4.03;3.17;;;28.40;28.90;;;;;;5018041;28;20059;-86
2021/06/05 11:09:31;;;;;;;4.22;3.83;;;28.40;29.00;;;;;;4994596;28;20123;-85
2021/06/05 11:12:23;;;;;;;6.95;3.85;;;28.20;29.30;;;;;;5009638;28;20087;-87
2021/06/05 11:14:51;;;;;;;5.00;3.33;;;28.10;29.40;;;;;;5023944;28;20032;-86
2021/06/05 11:17:37;;;;;;;5.43;3.67;;;28.10;29.40;;;;;;5011384;28;20171;-87
2021/06/05 11:20:08;;;;;;;7.45;4.00;;;28.00;29.80;;;;;;5013063;28;20032;-87
2021/06/05 11:22:54;;;;;;;9.18;3.58;;;27.90;30.00;;;;;;5010037;28;20139;-86
2021/06/05 11:25:24;;;;;;;6.13;3.70;;;27.80;30.20;;;;;;5010320;28;20097;-86
2021/06/05 11:27:52;;;;;;;6.18;5.07;;;27.70;30.20;;;;;;5008746;28;20067;-84
2021/06/05 11:30:22;;;;;;;8.13;3.53;;;27.60;30.50;;;;;;5025366;28;20032;-85
2021/06/05 11:33:10;;;;;;;3.83;3.42;;;27.60;30.80;;;;;;5026027;28;20139;-85
2021/06/05 11:35:43;;;;;;;5.60;3.45;;;27.50;30.60;;;;;;5009017;28;20043;-87
2021/06/05 11:38:17;;;;;;;6.82;3.83;;;27.30;30.40;;;;;;5009669;28;20047;-86
2021/06/05 11:40:56;;;;;;;4.32;3.10;;;27.20;30.80;;;;;;5024952;28;20054;-86
2021/06/05 11:43:28;;;;;;;6.28;4.32;;;27.00;31.00;;;;;;5008758;28;20412;-86
2021/06/05 11:49:09;;;;;;;2.63;2.42;;;27.00;31.00;;;;;;4405481;32;462261;-87
2021/06/05 11:51:41;;;;;;;8.77;3.40;;;27.00;30.80;;;;;;5100484;28;20508;-86
2021/06/05 11:59:44;;;;;;;6.78;3.55;;;26.80;31.10;;;;;;4409963;32;320985;-85
2021/06/05 12:02:24;;;;;;;3.47;3.17;;;26.90;31.20;;;;;;5085120;28;20030;-86
2021/06/05 12:04:55;;;;;;;8.57;3.28;;;26.90;31.20;;;;;;5068735;28;20432;-86
2021/06/05 12:07:30;;;;;;;5.55;3.30;;;27.00;30.90;;;;;;5069975;28;20103;-86
2021/06/05 12:10:00;;;;;;;4.65;3.20;;;27.00;30.70;;;;;;5051487;28;20113;-86
2021/06/05 12:12:38;;;;;;;5.50;3.20;;;26.90;30.70;;;;;;5050876;28;20103;-86
2021/06/05 12:15:24;;;;;;;7.20;3.20;;;26.80;30.90;;;;;;5052175;28;20030;-85
2021/06/05 12:17:59;;;;;;;6.28;3.60;;;26.80;31.20;;;;;;5053285;28;20110;-84
2021/06/05 12:21:00;;;;;;;9.45;3.42;;;26.80;31.10;;;;;;5051688;28;20031;-86
2021/06/05 12:23:28;;;;;;;5.45;3.40;;;26.80;31.20;;;;;;5067607;28;20039;-86
2021/06/05 12:26:12;;;;;;;8.63;3.50;;;26.90;31.20;;;;;;5092599;28;20058;-85
2021/06/05 12:28:51;;;;;;;5.68;3.42;;;27.00;31.30;;;;;;5070654;28;20035;-86
2021/06/05 12:31:28;;;;;;;5.22;3.60;;;27.10;30.50;;;;;;5052233;28;20045;-86
2021/06/05 12:34:06;;;;;;;5.35;3.58;;;27.10;30.60;;;;;;5085759;28;20043;-86
2021/06/05 12:36:40;;;;;;;5.78;3.22;;;27.20;30.40;;;;;;5051204;28;20050;-87
2021/06/05 12:39:26;;;;;;;4.13;3.72;;;27.20;30.30;;;;;;5069684;28;20053;-87
2021/06/05 12:41:53;;;;;;;4.82;3.75;;;27.20;30.70;;;;;;5071225;28;20098;-86
2021/06/05 12:44:30;;;;;;;5.63;3.80;;;27.20;30.50;;;;;;5052119;28;20043;-86
2021/06/05 12:46:57;;;;;;;6.35;3.72;;;27.10;30.60;;;;;;5083980;28;20099;-87
2021/06/05 12:49:28;;;;;;;5.47;3.67;;;27.10;32.00;;;;;;5049445;28;20042;-87
2021/06/05 12:52:01;;;;;;;3.95;3.28;;;27.00;30.70;;;;;;5047965;28;20117;-88
2021/06/05 13:06:05;;;;;;;2.55;2.35;;;26.60;31.20;;;;;;4409548;32;333670;-86
2021/06/05 13:08:38;;;;;;;4.97;3.75;;;26.40;31.80;;;;;;5101248;28;20023;-90
2021/06/05 13:11:06;;;;;;;8.32;4.60;;;26.50;31.70;;;;;;5084210;28;20035;-88
2021/06/05 13:13:34;;;;;;;10.10;3.92;;;26.50;31.70;;;;;;5083797;28;20047;-87
2021/06/05 13:16:16;;;;;;;5.50;3.65;;;26.70;31.50;;;;;;5100576;28;20587;-88
2021/06/05 13:18:46;;;;;;;5.28;3.80;;;26.80;31.10;;;;;;5119148;28;20057;-87
2021/06/05 13:21:27;;;;;;;7.18;3.70;;;26.90;31.00;;;;;;5084214;28;20091;-86
2021/06/05 13:24:15;;;;;;;3.92;3.50;;;26.90;30.90;;;;;;5101661;28;20117;-88
2021/06/05 13:26:50;;;;;;;4.57;3.80;;;26.90;31.00;;;;;;5103966;28;20045;-87
2021/06/05 13:29:42;;;;;;;6.40;3.40;;;26.90;31.10;;;;;;5069317;28;20034;-89
2021/06/05 13:32:24;;;;;;;5.55;3.58;;;26.80;31.40;;;;;;5085918;28;20513;-87
2021/06/05 13:34:50;;;;;;;5.75;2.90;;;26.70;31.70;;;;;;5103472;28;20038;-87
2021/06/05 13:37:26;;;;;;;3.75;3.40;;;26.60;32.00;;;;;;5100633;28;20049;-86
2021/06/05 13:39:55;;;;;;;5.30;3.70;;;26.50;32.10;;;;;;5101204;28;20037;-87
2021/06/05 13:42:33;;;;;;;5.07;3.10;;;26.40;32.10;;;;;;5083853;28;20408;-88
2021/06/05 13:45:07;;;;;;;6.53;3.50;;;26.40;32.10;;;;;;5069264;28;20035;-93
2021/06/05 13:47:35;;;;;;;5.22;3.55;;;26.40;32.10;;;;;;5056161;28;20039;-92